sensor_id;sensor_type;location;lat;lon;timestamp;pressure;altitude;pressure_sealevel;temperature;humidity
9538;BME280;4807;48.024;11.726;2024-03-07T00:02:22;95314.19;;;2.86;100.00
9538;BME280;4807;48.024;11.726;2024-03-07T00:05:32;95307.25;;;2.85;100.00
9538;BME280;4807;48.024;11.726;2024-03-07T00:08:40;95307.03;;;2.79;100.00
9538;BME280;4807;48.024;11.726;2024-03-07T00:11:48;95312.84;;;2.82;100.00
9538;BME280;4807;48.024;11.726;2024-03-07T00:14:57;95304.81;;;2.84;100.00
9538;BME280;4807;48.024;11.726;2024-03-07T00:18:05;95305.03;;;2.90;100.00
9538;BME280;4807;48.024;11.726;2024-03-07T00:21:15;95304.94;;;2.82;100.00
9538;BME280;4807;48.024;11.726;2024-03-07T00:24:23;95307.47;;;3.01;100.00
9538;BME280;4807;48.024;11.726;2024-03-07T00:27:32;95309.84;;;2.95;100.00
9538;BME280;4807;48.024;11.726;2024-03-07T00:30:40;95299.34;;;2.95;100.00
9538;BME280;4807;48.024;11.726;2024-03-07T00:33:50;95298.09;;;2.99;100.00
9538;BME280;4807;48.024;11.726;2024-03-07T00:37:17;95295.03;;;2.94;100.00
9538;BME280;4807;48.024;11.726;2024-03-07T00:40:25;95294.28;;;2.84;100.00
9538;BME280;4807;48.024;11.726;2024-03-07T00:43:33;95302.56;;;2.89;100.00
9538;BME280;4807;48.024;11.726;2024-03-07T00:46:41;95296.69;;;2.95;100.00
9538;BME280;4807;48.024;11.726;2024-03-07T00:49:50;95291.16;;;2.98;100.00
9538;BME280;4807;48.024;11.726;2024-03-07T00:52:59;95303.38;;;2.89;100.00
9538;BME280;4807;48.024;11.726;2024-03-07T00:56:08;95289.03;;;2.84;100.00
9538;BME280;4807;48.024;11.726;2024-03-07T00:59:16;95289.78;;;2.94;100.00
9538;BME280;4807;48.024;11.726;2024-03-07T01:02:24;95287.47;;;3.08;100.00
9538;BME280;4807;48.024;11.726;2024-03-07T01:05:33;95288.41;;;2.99;100.00
9538;BME280;4807;48.024;11.726;2024-03-07T01:08:43;95285.91;;;2.98;100.00
9538;BME280;4807;48.024;11.726;2024-03-07T01:11:51;95280.66;;;2.98;100.00
9538;BME280;4807;48.024;11.726;2024-03-07T01:15:00;95272.84;;;3.06;100.00
9538;BME280;4807;48.024;11.726;2024-03-07T01:18:08;95271.19;;;3.05;100.00
9538;BME280;4807;48.024;11.726;2024-03-07T01:21:17;95269.97;;;2.99;100.00
9538;BME280;4807;48.024;11.726;2024-03-07T01:24:26;95261.63;;;3.04;100.00
9538;BME280;4807;48.024;11.726;2024-03-07T01:27:34;95256.41;;;2.94;100.00
9538;BME280;4807;48.024;11.726;2024-03-07T01:30:43;95262.09;;;2.99;100.00
9538;BME280;4807;48.024;11.726;2024-03-07T01:33:52;95260.38;;;3.08;100.00
9538;BME280;4807;48.024;11.726;2024-03-07T01:37:00;95260.06;;;3.11;100.00
9538;BME280;4807;48.024;11.726;2024-03-07T01:40:13;95257.44;;;3.11;100.00
9538;BME280;4807;48.024;11.726;2024-03-07T01:43:21;95251.50;;;3.09;100.00
9538;BME280;4807;48.024;11.726;2024-03-07T01:46:30;95251.81;;;3.06;100.00
9538;BME280;4807;48.024;11.726;2024-03-07T01:49:39;95249.38;;;2.95;100.00
9538;BME280;4807;48.024;11.726;2024-03-07T01:52:48;95240.59;;;3.04;100.00
9538;BME280;4807;48.024;11.726;2024-03-07T01:56:00;95241.34;;;2.96;100.00
9538;BME280;4807;48.024;11.726;2024-03-07T01:59:12;95249.03;;;3.08;100.00
9538;BME280;4807;48.024;11.726;2024-03-07T02:02:21;95234.44;;;3.13;100.00
9538;BME280;4807;48.024;11.726;2024-03-07T02:05:30;95233.75;;;3.11;100.00
9538;BME280;4807;48.024;11.726;2024-03-07T02:08:39;95229.47;;;3.10;100.00
9538;BME280;4807;48.024;11.726;2024-03-07T02:11:49;95225.09;;;3.01;100.00
9538;BME280;4807;48.024;11.726;2024-03-07T02:14:57;95220.44;;;2.95;100.00
9538;BME280;4807;48.024;11.726;2024-03-07T02:18:06;95214.34;;;2.94;100.00
9538;BME280;4807;48.024;11.726;2024-03-07T02:21:17;95221.41;;;2.94;100.00
9538;BME280;4807;48.024;11.726;2024-03-07T02:24:26;95209.41;;;2.91;100.00
9538;BME280;4807;48.024;11.726;2024-03-07T02:27:34;95205.84;;;3.00;100.00
9538;BME280;4807;48.024;11.726;2024-03-07T02:30:42;95206.50;;;2.85;100.00
9538;BME280;4807;48.024;11.726;2024-03-07T02:33:55;95207.19;;;2.87;100.00
9538;BME280;4807;48.024;11.726;2024-03-07T02:37:05;95195.41;;;2.91;100.00
9538;BME280;4807;48.024;11.726;2024-03-07T02:40:14;95203.75;;;3.04;100.00
9538;BME280;4807;48.024;11.726;2024-03-07T02:43:23;95197.44;;;2.97;100.00
9538;BME280;4807;48.024;11.726;2024-03-07T02:46:31;95196.69;;;3.04;100.00
9538;BME280;4807;48.024;11.726;2024-03-07T02:49:40;95208.28;;;3.12;100.00
9538;BME280;4807;48.024;11.726;2024-03-07T02:52:50;95200.31;;;3.03;100.00
9538;BME280;4807;48.024;11.726;2024-03-07T02:56:00;95194.97;;;3.13;100.00
9538;BME280;4807;48.024;11.726;2024-03-07T02:59:11;95199.97;;;3.16;100.00
9538;BME280;4807;48.024;11.726;2024-03-07T03:02:20;95191.66;;;3.11;100.00
9538;BME280;4807;48.024;11.726;2024-03-07T03:05:29;95197.75;;;3.12;100.00
9538;BME280;4807;48.024;11.726;2024-03-07T03:08:39;95191.06;;;3.17;100.00
9538;BME280;4807;48.024;11.726;2024-03-07T03:11:47;95183.16;;;3.17;100.00
9538;BME280;4807;48.024;11.726;2024-03-07T03:14:55;95190.56;;;3.14;100.00
9538;BME280;4807;48.024;11.726;2024-03-07T03:18:04;95185.66;;;3.19;100.00
9538;BME280;4807;48.024;11.726;2024-03-07T03:21:14;95187.78;;;3.15;100.00
9538;BME280;4807;48.024;11.726;2024-03-07T03:24:24;95183.84;;;3.19;100.00
9538;BME280;4807;48.024;11.726;2024-03-07T03:27:34;95181.00;;;3.13;100.00
9538;BME280;4807;48.024;11.726;2024-03-07T03:30:42;95194.63;;;3.08;100.00
9538;BME280;4807;48.024;11.726;2024-03-07T03:33:51;95187.16;;;3.21;100.00
9538;BME280;4807;48.024;11.726;2024-03-07T03:37:00;95185.22;;;3.23;100.00
9538;BME280;4807;48.024;11.726;2024-03-07T03:40:11;95186.88;;;3.24;100.00
9538;BME280;4807;48.024;11.726;2024-03-07T03:43:19;95190.03;;;3.28;100.00
9538;BME280;4807;48.024;11.726;2024-03-07T03:46:28;95183.84;;;3.19;100.00
9538;BME280;4807;48.024;11.726;2024-03-07T03:49:36;95188.75;;;3.14;100.00
9538;BME280;4807;48.024;11.726;2024-03-07T03:52:44;95184.25;;;3.24;100.00
9538;BME280;4807;48.024;11.726;2024-03-07T03:55:54;95178.44;;;3.21;100.00
9538;BME280;4807;48.024;11.726;2024-03-07T04:02:46;95179.56;;;3.36;100.00
9538;BME280;4807;48.024;11.726;2024-03-07T04:05:56;95181.50;;;3.34;100.00
9538;BME280;4807;48.024;11.726;2024-03-07T04:09:04;95182.94;;;3.28;100.00
9538;BME280;4807;48.024;11.726;2024-03-07T04:12:14;95181.44;;;3.26;100.00
9538;BME280;4807;48.024;11.726;2024-03-07T04:15:25;95184.91;;;3.26;100.00
9538;BME280;4807;48.024;11.726;2024-03-07T04:18:34;95180.31;;;3.28;100.00
9538;BME280;4807;48.024;11.726;2024-03-07T04:21:42;95176.34;;;3.24;100.00
9538;BME280;4807;48.024;11.726;2024-03-07T04:24:51;95176.66;;;3.21;100.00
9538;BME280;4807;48.024;11.726;2024-03-07T04:28:02;95179.19;;;3.31;100.00
9538;BME280;4807;48.024;11.726;2024-03-07T04:31:12;95177.63;;;3.38;100.00
9538;BME280;4807;48.024;11.726;2024-03-07T04:34:20;95181.00;;;3.30;100.00
9538;BME280;4807;48.024;11.726;2024-03-07T04:37:29;95174.84;;;3.39;100.00
9538;BME280;4807;48.024;11.726;2024-03-07T04:40:37;95175.66;;;3.40;100.00
9538;BME280;4807;48.024;11.726;2024-03-07T04:43:48;95172.50;;;3.36;100.00
9538;BME280;4807;48.024;11.726;2024-03-07T04:46:58;95176.09;;;3.35;100.00
9538;BME280;4807;48.024;11.726;2024-03-07T04:50:08;95173.19;;;3.38;100.00
9538;BME280;4807;48.024;11.726;2024-03-07T04:53:18;95180.69;;;3.33;100.00
9538;BME280;4807;48.024;11.726;2024-03-07T04:56:27;95170.56;;;3.38;100.00
9538;BME280;4807;48.024;11.726;2024-03-07T04:59:36;95177.16;;;3.42;100.00
9538;BME280;4807;48.024;11.726;2024-03-07T05:02:47;95175.63;;;3.58;100.00
9538;BME280;4807;48.024;11.726;2024-03-07T05:05:55;95173.59;;;3.52;100.00
9538;BME280;4807;48.024;11.726;2024-03-07T05:09:06;95173.00;;;3.58;100.00
9538;BME280;4807;48.024;11.726;2024-03-07T05:12:15;95166.69;;;3.51;100.00
9538;BME280;4807;48.024;11.726;2024-03-07T05:15:25;95178.78;;;3.61;100.00
9538;BME280;4807;48.024;11.726;2024-03-07T05:18:34;95174.34;;;3.62;100.00
9538;BME280;4807;48.024;11.726;2024-03-07T05:21:42;95184.88;;;3.62;100.00
9538;BME280;4807;48.024;11.726;2024-03-07T05:24:50;95180.81;;;3.50;100.00
9538;BME280;4807;48.024;11.726;2024-03-07T05:27:59;95180.25;;;3.56;100.00
9538;BME280;4807;48.024;11.726;2024-03-07T05:31:11;95188.28;;;3.54;100.00
9538;BME280;4807;48.024;11.726;2024-03-07T05:34:19;95184.81;;;3.54;100.00
9538;BME280;4807;48.024;11.726;2024-03-07T05:37:31;95192.72;;;3.54;100.00
9538;BME280;4807;48.024;11.726;2024-03-07T05:40:40;95183.25;;;3.43;100.00
9538;BME280;4807;48.024;11.726;2024-03-07T05:43:50;95188.91;;;3.30;100.00
9538;BME280;4807;48.024;11.726;2024-03-07T05:47:00;95181.63;;;3.24;100.00
9538;BME280;4807;48.024;11.726;2024-03-07T05:50:09;95186.47;;;3.19;100.00
9538;BME280;4807;48.024;11.726;2024-03-07T05:53:18;95188.00;;;3.22;100.00
9538;BME280;4807;48.024;11.726;2024-03-07T05:56:26;95186.34;;;3.21;100.00
9538;BME280;4807;48.024;11.726;2024-03-07T05:59:35;95181.38;;;3.18;100.00
9538;BME280;4807;48.024;11.726;2024-03-07T06:02:45;95182.19;;;3.18;100.00
9538;BME280;4807;48.024;11.726;2024-03-07T06:05:54;95186.88;;;3.24;100.00
9538;BME280;4807;48.024;11.726;2024-03-07T06:09:05;95193.19;;;3.31;100.00
9538;BME280;4807;48.024;11.726;2024-03-07T06:12:15;95190.38;;;3.33;100.00
9538;BME280;4807;48.024;11.726;2024-03-07T06:15:33;95182.94;;;3.46;100.00
9538;BME280;4807;48.024;11.726;2024-03-07T06:18:43;95184.13;;;3.52;100.00
9538;BME280;4807;48.024;11.726;2024-03-07T06:21:53;95183.22;;;3.61;100.00
9538;BME280;4807;48.024;11.726;2024-03-07T06:25:03;95179.91;;;3.59;100.00
9538;BME280;4807;48.024;11.726;2024-03-07T06:28:14;95178.25;;;3.58;100.00
9538;BME280;4807;48.024;11.726;2024-03-07T06:31:22;95176.31;;;3.60;100.00
9538;BME280;4807;48.024;11.726;2024-03-07T06:34:32;95184.59;;;3.65;100.00
9538;BME280;4807;48.024;11.726;2024-03-07T06:37:40;95179.00;;;3.68;100.00
9538;BME280;4807;48.024;11.726;2024-03-07T06:40:50;95183.59;;;3.66;100.00
9538;BME280;4807;48.024;11.726;2024-03-07T06:43:59;95180.13;;;3.65;100.00
9538;BME280;4807;48.024;11.726;2024-03-07T06:47:07;95182.31;;;3.70;100.00
9538;BME280;4807;48.024;11.726;2024-03-07T06:50:17;95183.50;;;3.75;100.00
9538;BME280;4807;48.024;11.726;2024-03-07T06:53:42;95187.28;;;3.73;100.00
9538;BME280;4807;48.024;11.726;2024-03-07T06:56:50;95188.63;;;3.77;100.00
9538;BME280;4807;48.024;11.726;2024-03-07T06:59:59;95196.53;;;3.77;100.00
9538;BME280;4807;48.024;11.726;2024-03-07T07:03:08;95192.22;;;3.76;100.00
9538;BME280;4807;48.024;11.726;2024-03-07T07:06:21;95189.75;;;3.74;100.00
9538;BME280;4807;48.024;11.726;2024-03-07T07:09:29;95198.53;;;3.83;100.00
9538;BME280;4807;48.024;11.726;2024-03-07T07:12:37;95194.25;;;3.82;100.00
9538;BME280;4807;48.024;11.726;2024-03-07T07:15:46;95195.91;;;3.83;100.00
9538;BME280;4807;48.024;11.726;2024-03-07T07:18:54;95191.66;;;3.90;99.87
9538;BME280;4807;48.024;11.726;2024-03-07T07:22:04;95191.91;;;3.97;99.31
9538;BME280;4807;48.024;11.726;2024-03-07T07:25:13;95189.84;;;3.91;97.54
9538;BME280;4807;48.024;11.726;2024-03-07T07:28:23;95190.69;;;3.91;96.64
9538;BME280;4807;48.024;11.726;2024-03-07T07:31:32;95189.91;;;3.99;97.99
9538;BME280;4807;48.024;11.726;2024-03-07T07:34:40;95192.84;;;4.13;97.97
9538;BME280;4807;48.024;11.726;2024-03-07T07:37:52;95193.06;;;4.28;97.67
9538;BME280;4807;48.024;11.726;2024-03-07T07:41:03;95184.69;;;4.33;96.37
9538;BME280;4807;48.024;11.726;2024-03-07T07:44:12;95183.03;;;4.06;95.05
9538;BME280;4807;48.024;11.726;2024-03-07T07:47:21;95181.19;;;3.98;96.07
9538;BME280;4807;48.024;11.726;2024-03-07T07:50:29;95190.78;;;4.07;96.81
9538;BME280;4807;48.024;11.726;2024-03-07T07:53:41;95186.31;;;4.26;96.77
9538;BME280;4807;48.024;11.726;2024-03-07T07:56:50;95182.75;;;4.43;96.61
9538;BME280;4807;48.024;11.726;2024-03-07T07:59:59;95179.53;;;4.57;96.28
9538;BME280;4807;48.024;11.726;2024-03-07T08:03:07;95188.31;;;4.66;95.74
9538;BME280;4807;48.024;11.726;2024-03-07T08:06:16;95174.84;;;4.77;94.63
9538;BME280;4807;48.024;11.726;2024-03-07T08:09:26;95178.81;;;4.89;93.57
9538;BME280;4807;48.024;11.726;2024-03-07T08:12:35;95182.66;;;4.94;92.97
9538;BME280;4807;48.024;11.726;2024-03-07T08:15:44;95191.22;;;5.05;91.70
9538;BME280;4807;48.024;11.726;2024-03-07T08:18:52;95186.63;;;5.07;91.73
9538;BME280;4807;48.024;11.726;2024-03-07T08:22:00;95185.31;;;5.03;91.92
9538;BME280;4807;48.024;11.726;2024-03-07T08:25:13;95187.28;;;5.01;90.32
9538;BME280;4807;48.024;11.726;2024-03-07T08:28:24;95177.19;;;5.04;89.31
9538;BME280;4807;48.024;11.726;2024-03-07T08:31:32;95184.16;;;5.13;89.17
9538;BME280;4807;48.024;11.726;2024-03-07T08:34:40;95184.50;;;5.10;89.94
9538;BME280;4807;48.024;11.726;2024-03-07T08:37:51;95181.69;;;5.28;89.61
9538;BME280;4807;48.024;11.726;2024-03-07T08:41:03;95177.09;;;5.46;89.09
9538;BME280;4807;48.024;11.726;2024-03-07T08:44:12;95178.09;;;5.53;87.37
9538;BME280;4807;48.024;11.726;2024-03-07T08:47:21;95169.69;;;5.58;87.66
9538;BME280;4807;48.024;11.726;2024-03-07T08:50:29;95174.97;;;5.66;87.57
9538;BME280;4807;48.024;11.726;2024-03-07T08:53:40;95177.47;;;5.67;87.28
9538;BME280;4807;48.024;11.726;2024-03-07T08:56:49;95173.16;;;5.66;87.31
9538;BME280;4807;48.024;11.726;2024-03-07T08:59:57;95178.44;;;5.66;86.95
9538;BME280;4807;48.024;11.726;2024-03-07T09:03:08;95174.63;;;5.69;86.86
9538;BME280;4807;48.024;11.726;2024-03-07T09:06:20;95167.38;;;5.63;86.22
9538;BME280;4807;48.024;11.726;2024-03-07T09:09:28;95172.50;;;5.64;86.55
9538;BME280;4807;48.024;11.726;2024-03-07T09:12:37;95161.09;;;5.64;87.24
9538;BME280;4807;48.024;11.726;2024-03-07T09:15:46;95167.38;;;5.38;86.38
9538;BME280;4807;48.024;11.726;2024-03-07T09:18:54;95166.56;;;5.54;87.33
9538;BME280;4807;48.024;11.726;2024-03-07T09:22:03;95162.91;;;5.71;87.58
9538;BME280;4807;48.024;11.726;2024-03-07T09:25:12;95159.97;;;5.91;87.30
9538;BME280;4807;48.024;11.726;2024-03-07T09:28:22;95164.56;;;6.05;86.47
9538;BME280;4807;48.024;11.726;2024-03-07T09:31:30;95162.91;;;6.04;84.63
9538;BME280;4807;48.024;11.726;2024-03-07T09:34:38;95167.88;;;5.74;86.43
9538;BME280;4807;48.024;11.726;2024-03-07T09:37:46;95172.81;;;5.78;87.30
9538;BME280;4807;48.024;11.726;2024-03-07T09:40:55;95162.09;;;5.79;86.79
9538;BME280;4807;48.024;11.726;2024-03-07T09:44:05;95166.25;;;5.90;86.97
9538;BME280;4807;48.024;11.726;2024-03-07T09:47:16;95159.94;;;6.15;86.69
9538;BME280;4807;48.024;11.726;2024-03-07T09:50:29;95159.22;;;6.29;86.29
9538;BME280;4807;48.024;11.726;2024-03-07T09:53:40;95162.03;;;6.36;85.60
9538;BME280;4807;48.024;11.726;2024-03-07T09:56:52;95161.53;;;6.40;85.52
9538;BME280;4807;48.024;11.726;2024-03-07T10:00:05;95160.81;;;5.91;85.48
9538;BME280;4807;48.024;11.726;2024-03-07T10:03:21;95161.59;;;6.08;86.65
9538;BME280;4807;48.024;11.726;2024-03-07T10:06:31;95163.53;;;6.30;86.15
9538;BME280;4807;48.024;11.726;2024-03-07T10:09:41;95159.56;;;6.73;85.13
9538;BME280;4807;48.024;11.726;2024-03-07T10:12:49;95157.53;;;7.14;81.95
9538;BME280;4807;48.024;11.726;2024-03-07T10:16:01;95154.84;;;8.20;80.19
9538;BME280;4807;48.024;11.726;2024-03-07T10:19:12;95153.34;;;8.85;75.79
9538;BME280;4807;48.024;11.726;2024-03-07T10:22:20;95153.88;;;8.95;72.86
9538;BME280;4807;48.024;11.726;2024-03-07T10:25:28;95159.31;;;8.72;74.61
9538;BME280;4807;48.024;11.726;2024-03-07T10:28:38;95161.81;;;8.21;75.26
9538;BME280;4807;48.024;11.726;2024-03-07T10:31:49;95155.38;;;7.63;78.24
9538;BME280;4807;48.024;11.726;2024-03-07T10:35:10;95163.75;;;6.60;81.76
9538;BME280;4807;48.024;11.726;2024-03-07T10:38:21;95159.59;;;5.78;84.71
9538;BME280;4807;48.024;11.726;2024-03-07T10:41:36;95160.59;;;5.60;87.89
9538;BME280;4807;48.024;11.726;2024-03-07T10:44:49;95156.81;;;5.47;88.89
9538;BME280;4807;48.024;11.726;2024-03-07T10:48:07;95156.50;;;5.42;90.17
9538;BME280;4807;48.024;11.726;2024-03-07T10:51:27;95160.13;;;5.57;88.91
9538;BME280;4807;48.024;11.726;2024-03-07T10:54:48;95155.50;;;5.83;89.18
9538;BME280;4807;48.024;11.726;2024-03-07T10:58:26;95157.34;;;5.91;88.98
9538;BME280;4807;48.024;11.726;2024-03-07T11:01:46;95148.41;;;5.75;89.21
9538;BME280;4807;48.024;11.726;2024-03-07T11:05:04;95153.84;;;5.82;88.73
9538;BME280;4807;48.024;11.726;2024-03-07T11:08:16;95153.03;;;5.98;89.33
9538;BME280;4807;48.024;11.726;2024-03-07T11:11:26;95149.22;;;5.92;89.10
9538;BME280;4807;48.024;11.726;2024-03-07T11:14:37;95148.00;;;6.27;87.96
9538;BME280;4807;48.024;11.726;2024-03-07T11:17:48;95141.31;;;6.56;85.71
9538;BME280;4807;48.024;11.726;2024-03-07T11:20:59;95132.38;;;6.87;83.07
9538;BME280;4807;48.024;11.726;2024-03-07T11:24:07;95128.00;;;7.03;81.86
9538;BME280;4807;48.024;11.726;2024-03-07T11:27:17;95129.88;;;7.40;82.11
9538;BME280;4807;48.024;11.726;2024-03-07T11:30:25;95125.38;;;7.63;78.61
9538;BME280;4807;48.024;11.726;2024-03-07T11:33:34;95112.06;;;7.94;80.62
9538;BME280;4807;48.024;11.726;2024-03-07T11:36:45;95114.75;;;8.67;77.01
9538;BME280;4807;48.024;11.726;2024-03-07T11:39:53;95107.38;;;8.99;75.75
9538;BME280;4807;48.024;11.726;2024-03-07T11:43:05;95101.44;;;8.82;72.64
9538;BME280;4807;48.024;11.726;2024-03-07T11:46:13;95106.59;;;8.25;74.18
9538;BME280;4807;48.024;11.726;2024-03-07T11:49:24;95106.84;;;7.63;75.22
9538;BME280;4807;48.024;11.726;2024-03-07T11:52:35;95097.25;;;8.29;75.48
9538;BME280;4807;48.024;11.726;2024-03-07T11:55:45;95096.63;;;9.07;71.39
9538;BME280;4807;48.024;11.726;2024-03-07T11:58:55;95094.19;;;9.76;67.68
9538;BME280;4807;48.024;11.726;2024-03-07T12:02:04;95088.16;;;9.61;67.80
9538;BME280;4807;48.024;11.726;2024-03-07T12:05:12;95078.16;;;8.84;69.13
9538;BME280;4807;48.024;11.726;2024-03-07T12:08:24;95072.38;;;8.59;71.24
9538;BME280;4807;48.024;11.726;2024-03-07T12:11:34;95071.81;;;8.05;73.25
9538;BME280;4807;48.024;11.726;2024-03-07T12:14:43;95073.03;;;8.02;74.36
9538;BME280;4807;48.024;11.726;2024-03-07T12:17:53;95078.41;;;7.94;72.42
9538;BME280;4807;48.024;11.726;2024-03-07T12:21:03;95080.50;;;7.84;73.87
9538;BME280;4807;48.024;11.726;2024-03-07T12:24:18;95077.59;;;7.56;75.49
9538;BME280;4807;48.024;11.726;2024-03-07T12:27:30;95079.72;;;7.61;76.00
9538;BME280;4807;48.024;11.726;2024-03-07T12:30:56;95072.38;;;8.00;72.36
9538;BME280;4807;48.024;11.726;2024-03-07T12:34:08;95065.88;;;8.47;70.30
9538;BME280;4807;48.024;11.726;2024-03-07T12:37:17;95068.19;;;8.86;69.22
9538;BME280;4807;48.024;11.726;2024-03-07T12:40:35;95060.00;;;8.66;68.72
9538;BME280;4807;48.024;11.726;2024-03-07T12:43:44;95061.69;;;8.09;72.08
9538;BME280;4807;48.024;11.726;2024-03-07T12:46:54;95062.63;;;7.26;73.71
9538;BME280;4807;48.024;11.726;2024-03-07T12:50:04;95056.91;;;6.92;75.60
9538;BME280;4807;48.024;11.726;2024-03-07T12:53:14;95054.78;;;6.64;78.58
9538;BME280;4807;48.024;11.726;2024-03-07T12:56:25;95051.56;;;6.77;80.09
9538;BME280;4807;48.024;11.726;2024-03-07T12:59:34;95052.44;;;6.69;75.96
9538;BME280;4807;48.024;11.726;2024-03-07T13:02:46;95055.47;;;6.89;76.39
9538;BME280;4807;48.024;11.726;2024-03-07T13:05:55;95052.66;;;7.13;75.14
9538;BME280;4807;48.024;11.726;2024-03-07T13:09:08;95051.50;;;7.31;74.70
9538;BME280;4807;48.024;11.726;2024-03-07T13:12:19;95041.31;;;7.57;73.77
9538;BME280;4807;48.024;11.726;2024-03-07T13:15:28;95043.00;;;7.87;73.93
9538;BME280;4807;48.024;11.726;2024-03-07T13:18:36;95046.13;;;8.05;73.06
9538;BME280;4807;48.024;11.726;2024-03-07T13:21:45;95048.88;;;8.27;72.10
9538;BME280;4807;48.024;11.726;2024-03-07T13:24:53;95047.78;;;8.36;72.33
9538;BME280;4807;48.024;11.726;2024-03-07T13:28:08;95042.09;;;7.80;72.73
9538;BME280;4807;48.024;11.726;2024-03-07T13:31:20;95046.38;;;7.81;73.53
9538;BME280;4807;48.024;11.726;2024-03-07T13:34:30;95041.47;;;7.93;72.67
9538;BME280;4807;48.024;11.726;2024-03-07T13:37:39;95044.78;;;8.10;71.04
9538;BME280;4807;48.024;11.726;2024-03-07T13:40:47;95042.88;;;8.33;70.09
9538;BME280;4807;48.024;11.726;2024-03-07T13:43:58;95034.59;;;8.28;70.11
9538;BME280;4807;48.024;11.726;2024-03-07T13:47:07;95043.19;;;8.30;70.52
9538;BME280;4807;48.024;11.726;2024-03-07T13:50:17;95038.00;;;8.36;69.48
9538;BME280;4807;48.024;11.726;2024-03-07T13:53:46;95032.91;;;8.35;69.62
9538;BME280;4807;48.024;11.726;2024-03-07T13:57:26;95037.63;;;8.10;70.39
9538;BME280;4807;48.024;11.726;2024-03-07T14:00:47;95043.38;;;7.84;71.52
9538;BME280;4807;48.024;11.726;2024-03-07T14:04:54;95028.16;;;7.49;73.27
9538;BME280;4807;48.024;11.726;2024-03-07T14:08:55;95034.34;;;7.04;74.59
9538;BME280;4807;48.024;11.726;2024-03-07T14:12:46;95023.16;;;7.16;75.39
9538;BME280;4807;48.024;11.726;2024-03-07T14:16:39;95035.59;;;7.31;74.22
9538;BME280;4807;48.024;11.726;2024-03-07T14:20:54;95036.41;;;6.94;76.20
9538;BME280;4807;48.024;11.726;2024-03-07T14:24:36;95033.72;;;7.16;75.40
9538;BME280;4807;48.024;11.726;2024-03-07T14:28:14;95018.63;;;7.40;73.37
9538;BME280;4807;48.024;11.726;2024-03-07T14:31:27;95025.00;;;7.31;72.32
9538;BME280;4807;48.024;11.726;2024-03-07T14:35:00;95012.91;;;7.51;72.61
9538;BME280;4807;48.024;11.726;2024-03-07T14:38:26;95018.66;;;7.54;72.41
9538;BME280;4807;48.024;11.726;2024-03-07T14:41:48;95017.50;;;7.72;73.15
9538;BME280;4807;48.024;11.726;2024-03-07T14:44:59;95013.75;;;7.66;73.80
9538;BME280;4807;48.024;11.726;2024-03-07T14:48:18;95020.13;;;7.57;74.10
9538;BME280;4807;48.024;11.726;2024-03-07T14:51:27;95016.09;;;7.09;74.60
9538;BME280;4807;48.024;11.726;2024-03-07T14:54:39;95020.56;;;7.08;75.92
9538;BME280;4807;48.024;11.726;2024-03-07T14:57:47;95019.69;;;6.93;76.97
9538;BME280;4807;48.024;11.726;2024-03-07T15:00:56;95019.50;;;6.72;76.46
9538;BME280;4807;48.024;11.726;2024-03-07T15:04:09;95017.91;;;6.63;75.65
9538;BME280;4807;48.024;11.726;2024-03-07T15:07:18;95019.03;;;6.68;76.75
9538;BME280;4807;48.024;11.726;2024-03-07T15:10:35;95022.34;;;6.70;76.83
9538;BME280;4807;48.024;11.726;2024-03-07T15:13:43;95011.88;;;6.77;76.89
9538;BME280;4807;48.024;11.726;2024-03-07T15:16:53;95016.16;;;6.78;75.29
9538;BME280;4807;48.024;11.726;2024-03-07T15:20:03;95020.91;;;6.60;76.44
9538;BME280;4807;48.024;11.726;2024-03-07T15:23:13;95022.31;;;6.47;76.21
9538;BME280;4807;48.024;11.726;2024-03-07T15:26:23;95029.63;;;6.68;76.40
9538;BME280;4807;48.024;11.726;2024-03-07T15:29:31;95024.38;;;6.60;77.17
9538;BME280;4807;48.024;11.726;2024-03-07T15:32:41;95020.38;;;6.33;77.80
9538;BME280;4807;48.024;11.726;2024-03-07T15:35:51;95018.75;;;6.32;78.38
9538;BME280;4807;48.024;11.726;2024-03-07T15:39:00;95019.50;;;6.41;79.12
9538;BME280;4807;48.024;11.726;2024-03-07T15:42:22;95012.84;;;6.22;79.45
9538;BME280;4807;48.024;11.726;2024-03-07T15:45:35;95014.00;;;6.20;79.70
9538;BME280;4807;48.024;11.726;2024-03-07T15:48:49;95009.34;;;5.91;80.51
9538;BME280;4807;48.024;11.726;2024-03-07T15:51:59;95008.69;;;5.81;81.26
9538;BME280;4807;48.024;11.726;2024-03-07T15:55:08;95004.13;;;5.58;81.41
9538;BME280;4807;48.024;11.726;2024-03-07T15:58:21;95005.13;;;5.57;82.24
9538;BME280;4807;48.024;11.726;2024-03-07T16:01:30;95003.81;;;5.45;82.75
9538;BME280;4807;48.024;11.726;2024-03-07T16:04:40;95005.16;;;5.41;83.65
9538;BME280;4807;48.024;11.726;2024-03-07T16:07:52;94993.25;;;5.45;84.16
9538;BME280;4807;48.024;11.726;2024-03-07T16:11:02;94994.22;;;5.52;84.91
9538;BME280;4807;48.024;11.726;2024-03-07T16:14:11;94998.66;;;5.60;83.49
9538;BME280;4807;48.024;11.726;2024-03-07T16:17:19;95004.13;;;5.58;83.62
9538;BME280;4807;48.024;11.726;2024-03-07T16:20:30;94996.22;;;5.50;82.90
9538;BME280;4807;48.024;11.726;2024-03-07T16:23:41;95000.69;;;5.50;82.54
9538;BME280;4807;48.024;11.726;2024-03-07T16:26:49;95004.31;;;5.49;82.80
9538;BME280;4807;48.024;11.726;2024-03-07T16:29:58;95003.19;;;5.43;82.19
9538;BME280;4807;48.024;11.726;2024-03-07T16:33:06;95006.16;;;5.40;81.75
9538;BME280;4807;48.024;11.726;2024-03-07T16:36:15;95008.47;;;5.43;80.85
9538;BME280;4807;48.024;11.726;2024-03-07T16:39:25;95009.47;;;5.34;81.55
9538;BME280;4807;48.024;11.726;2024-03-07T16:42:34;95000.91;;;5.24;80.99
9538;BME280;4807;48.024;11.726;2024-03-07T16:45:46;94993.97;;;5.15;81.97
9538;BME280;4807;48.024;11.726;2024-03-07T16:48:55;95013.78;;;5.03;79.49
9538;BME280;4807;48.024;11.726;2024-03-07T16:52:04;95012.75;;;4.95;79.21
9538;BME280;4807;48.024;11.726;2024-03-07T16:55:14;95013.13;;;4.92;80.49
9538;BME280;4807;48.024;11.726;2024-03-07T16:58:25;95008.16;;;4.89;80.98
9538;BME280;4807;48.024;11.726;2024-03-07T17:01:33;95002.56;;;4.84;80.19
9538;BME280;4807;48.024;11.726;2024-03-07T17:04:43;95000.25;;;4.81;78.36
9538;BME280;4807;48.024;11.726;2024-03-07T17:07:52;95015.91;;;4.75;79.21
9538;BME280;4807;48.024;11.726;2024-03-07T17:11:03;95014.75;;;4.61;79.57
9538;BME280;4807;48.024;11.726;2024-03-07T17:14:12;95014.41;;;4.64;79.40
9538;BME280;4807;48.024;11.726;2024-03-07T17:17:20;95019.03;;;4.54;79.26
9538;BME280;4807;48.024;11.726;2024-03-07T17:20:29;95024.09;;;4.47;80.04